createdAt,value
2022-08-23T00:01:26.405Z,98492.13
2022-08-23T00:03:58.146Z,98490.72
2022-08-23T00:06:25.013Z,98495.31
2022-08-23T00:08:52.797Z,98490.72
2022-08-23T00:11:33.525Z,98485.56
2022-08-23T00:14:05.761Z,98501.91
2022-08-23T00:16:32.354Z,98491.44
2022-08-23T00:18:59.461Z,98489.72
2022-08-23T00:21:26.124Z,98495.09
2022-08-23T00:23:52.700Z,98489.72
2022-08-23T00:26:20.785Z,98494.44
2022-08-23T00:28:49.788Z,98495.44
2022-08-23T00:31:18.835Z,98495.72
2022-08-23T00:33:46.142Z,98495.88
2022-08-23T00:36:12.720Z,98502.28
2022-08-23T00:38:39.466Z,98487.94
2022-08-23T00:41:06.322Z,98492.16
2022-08-23T00:43:58.256Z,98483.13
2022-08-23T00:47:07.191Z,98492.72
2022-08-23T00:49:36.067Z,98500.72
2022-08-23T00:52:08.928Z,98488.53
2022-08-23T00:54:37.880Z,98492.13
2022-08-23T00:57:10.808Z,98493.47
2022-08-23T00:59:37.654Z,98492.78
2022-08-23T01:02:05.463Z,98492.78
2022-08-23T01:04:37.893Z,98488.72
2022-08-23T01:07:09.190Z,98491.31
2022-08-23T01:09:38.020Z,98490.50
2022-08-23T01:12:16.065Z,98480.41
2022-08-23T01:14:54.258Z,98484.41
2022-08-23T01:17:30.082Z,98484.22
2022-08-23T01:20:03.845Z,98481.25
2022-08-23T01:22:41.425Z,98498.34
2022-08-23T01:25:11.549Z,98486.06
2022-08-23T01:27:39.613Z,98491.25
2022-08-23T01:30:09.983Z,98498.19
2022-08-23T01:32:44.457Z,98504.28
2022-08-23T01:35:11.553Z,98499.41
2022-08-23T01:37:38.617Z,98503.38
2022-08-23T01:40:06.339Z,98500.59
2022-08-23T01:42:32.975Z,98503.56
2022-08-23T01:44:59.681Z,98497.41
2022-08-23T01:47:26.235Z,98495.81
2022-08-23T01:49:52.963Z,98497.91
2022-08-23T01:52:19.651Z,98492.03
2022-08-23T01:54:46.673Z,98492.47
2022-08-23T01:57:13.508Z,98498.69
2022-08-23T01:59:40.225Z,98492.41
2022-08-23T02:02:06.829Z,98488.09
2022-08-23T02:04:33.459Z,98492.69
2022-08-23T02:07:00.041Z,98487.56
2022-08-23T02:09:26.625Z,98497.44
2022-08-23T02:11:54.893Z,98496.34
2022-08-23T02:14:21.800Z,98496.75
2022-08-23T02:17:03.905Z,98506.84
2022-08-23T02:19:35.632Z,98511.34
2022-08-23T02:22:03.570Z,98514.22
2022-08-23T02:24:31.524Z,98518.66
2022-08-23T02:27:02.271Z,98518.78
2022-08-23T02:29:29.945Z,98515.66
2022-08-23T02:31:58.876Z,98523.25
2022-08-23T02:34:36.686Z,98526.41
2022-08-23T02:37:03.669Z,98523.06
2022-08-23T02:39:30.495Z,98527.50
2022-08-23T02:41:57.786Z,98524.53
2022-08-23T02:44:24.673Z,98530.81
2022-08-23T02:46:51.441Z,98530.81
2022-08-23T02:49:18.301Z,98525.59
2022-08-23T02:51:45.245Z,98533.47
2022-08-23T02:54:12.080Z,98526.59
2022-08-23T02:56:39.051Z,98529.03
2022-08-23T02:59:06.856Z,98530.69
2022-08-23T03:01:38.127Z,98524.41
2022-08-23T03:04:07.779Z,98529.91
2022-08-23T03:06:34.448Z,98526.66
2022-08-23T03:09:01.528Z,98528.66
2022-08-23T03:11:28.518Z,98534.94
2022-08-23T03:13:56.521Z,98532.16
2022-08-23T03:16:24.796Z,98535.91
2022-08-23T03:18:52.365Z,98535.31
2022-08-23T03:21:20.646Z,98531.09
2022-08-23T03:23:47.327Z,98532.75
2022-08-23T03:26:14.819Z,98538.97
2022-08-23T03:28:44.095Z,98534.66
2022-08-23T03:31:12.482Z,98540.94
2022-08-23T03:33:39.505Z,98536.72
2022-08-23T03:36:08.031Z,98542.00
2022-08-23T03:38:36.301Z,98536.16
2022-08-23T03:41:03.077Z,98534.44
2022-08-23T03:43:29.904Z,98535.50
2022-08-23T03:45:57.160Z,98534.44
2022-08-23T03:48:25.046Z,98548.53
2022-08-23T03:50:54.580Z,98542.38
2022-08-23T03:53:23.839Z,98549.44
2022-08-23T03:55:52.133Z,98545.94
2022-08-23T03:58:21.706Z,98554.03
2022-08-23T04:00:48.908Z,98546.25
2022-08-23T04:03:15.497Z,98551.81
2022-08-23T04:05:42.272Z,98550.09
2022-08-23T04:08:11.272Z,98547.66
2022-08-23T04:10:39.407Z,98550.41
2022-08-23T04:13:07.238Z,98560.19
2022-08-23T04:15:33.827Z,98547.97
2022-08-23T04:18:00.994Z,98564.88
2022-08-23T04:20:28.925Z,98558.75
2022-08-23T04:22:56.490Z,98561.25
2022-08-23T04:25:34.802Z,98555.97
2022-08-23T04:28:02.548Z,98566.53
2022-08-23T04:30:29.863Z,98566.31
2022-08-23T04:32:57.463Z,98557.59
2022-08-23T04:35:25.679Z,98569.69
2022-08-23T04:37:53.016Z,98560.97
2022-08-23T04:40:38.006Z,98558.94
2022-08-23T04:43:04.881Z,98565.78
2022-08-23T04:45:32.607Z,98566.47
2022-08-23T04:47:59.498Z,98567.06
2022-08-23T04:50:26.202Z,98580.00
2022-08-23T04:52:53.177Z,98582.50
2022-08-23T04:55:20.317Z,98576.44
2022-08-23T04:57:46.823Z,98585.16
2022-08-23T05:00:14.747Z,98584.03
2022-08-23T05:02:41.494Z,98589.81
2022-08-23T05:05:11.323Z,98590.28
2022-08-23T05:07:42.505Z,98591.72
2022-08-23T05:10:13.055Z,98598.78
2022-08-23T05:12:40.237Z,98599.69
2022-08-23T05:15:09.311Z,98601.69
2022-08-23T05:17:36.807Z,98601.78
2022-08-23T05:20:05.158Z,98598.31
2022-08-23T05:22:38.941Z,98601.16
2022-08-23T05:25:06.242Z,98595.34
2022-08-23T05:27:33.363Z,98595.47
2022-08-23T05:29:59.940Z,98604.44
2022-08-23T05:32:27.699Z,98602.97
2022-08-23T05:34:57.068Z,98608.19
2022-08-23T05:37:23.695Z,98609.84
2022-08-23T05:39:50.361Z,98610.28
2022-08-23T05:42:17.431Z,98616.34
2022-08-23T05:44:44.422Z,98613.38
2022-08-23T05:47:15.138Z,98621.69
2022-08-23T05:49:42.728Z,98625.09
2022-08-23T05:52:12.750Z,98620.69
2022-08-23T05:54:39.672Z,98624.41
2022-08-23T05:57:06.659Z,98628.00
2022-08-23T05:59:33.448Z,98626.81
2022-08-23T06:02:00.029Z,98626.41
2022-08-23T06:04:26.577Z,98637.56
2022-08-23T06:06:54.014Z,98633.56
2022-08-23T06:09:20.723Z,98638.75
2022-08-23T06:11:48.575Z,98631.09
2022-08-23T06:14:16.206Z,98639.44
2022-08-23T06:16:46.486Z,98638.44
2022-08-23T06:19:14.472Z,98637.03
2022-08-23T06:21:42.072Z,98636.66
2022-08-23T06:24:08.766Z,98631.19
2022-08-23T06:26:41.452Z,98628.44
2022-08-23T06:29:14.392Z,98636.31
2022-08-23T06:31:47.061Z,98632.72
2022-08-23T06:34:26.749Z,98636.78
2022-08-23T06:36:59.132Z,98630.44
2022-08-23T06:39:29.883Z,98635.63
2022-08-23T06:42:34.899Z,98638.28
2022-08-23T06:44:58.845Z,98635.50
2022-08-23T06:47:25.392Z,98645.13
2022-08-23T06:49:57.817Z,98648.09
2022-08-23T06:52:27.676Z,98646.72
2022-08-23T06:54:54.630Z,98641.16
2022-08-23T06:57:21.254Z,98635.91
2022-08-23T06:59:50.165Z,98651.31
2022-08-23T07:02:17.207Z,98654.31
2022-08-23T07:04:43.994Z,98643.25
2022-08-23T07:07:12.188Z,98644.28
2022-08-23T07:09:39.967Z,98642.50
2022-08-23T07:12:06.746Z,98641.44
2022-08-23T07:14:33.404Z,98656.31
2022-08-23T07:17:01.530Z,98650.03
2022-08-23T07:19:30.722Z,98647.19
2022-08-23T07:21:58.461Z,98657.53
2022-08-23T07:24:29.336Z,98651.38
2022-08-23T07:26:59.292Z,98652.06
2022-08-23T07:29:25.873Z,98664.00
2022-08-23T07:31:55.953Z,98661.28
2022-08-23T07:34:23.680Z,98665.81
2022-08-23T07:36:51.686Z,98657.94
2022-08-23T07:39:19.924Z,98657.97
2022-08-23T07:41:47.087Z,98655.34
2022-08-23T07:44:18.168Z,98650.78
2022-08-23T07:46:46.703Z,98656.91
2022-08-23T07:49:14.279Z,98654.81
2022-08-23T07:51:45.546Z,98652.56
2022-08-23T07:54:13.083Z,98652.84
2022-08-23T07:56:40.207Z,98648.16
2022-08-23T07:59:08.158Z,98665.34
2022-08-23T08:01:35.265Z,98657.53
2022-08-23T08:04:04.327Z,98649.97
2022-08-23T08:06:36.526Z,98646.47
2022-08-23T08:09:06.114Z,98654.00
2022-08-23T08:11:35.442Z,98651.41
2022-08-23T08:14:07.711Z,98648.81
2022-08-23T08:16:44.079Z,98654.31
2022-08-23T08:19:12.577Z,98654.44
2022-08-23T08:21:42.465Z,98653.56
2022-08-23T08:24:12.864Z,98646.34
2022-08-23T08:26:40.857Z,98650.00
2022-08-23T08:29:11.343Z,98655.31
2022-08-23T08:31:39.595Z,98656.31
2022-08-23T08:34:07.941Z,98665.72
2022-08-23T08:36:41.414Z,98658.41
2022-08-23T08:39:12.298Z,98655.13
2022-08-23T08:41:57.456Z,98659.94
2022-08-23T08:44:37.664Z,98650.88
2022-08-23T08:47:25.800Z,98654.56
2022-08-23T08:50:15.898Z,98656.13
2022-08-23T08:52:48.115Z,98659.53
2022-08-23T08:55:24.170Z,98659.25
2022-08-23T08:57:52.261Z,98650.59
2022-08-23T09:00:23.445Z,98665.31
2022-08-23T09:02:51.153Z,98662.63
2022-08-23T09:05:31.897Z,98655.72
2022-08-23T09:08:34.451Z,98660.09
2022-08-23T09:11:47.220Z,98662.59
2022-08-23T09:14:27.350Z,98665.59
2022-08-23T09:17:07.464Z,98660.00
2022-08-23T09:19:38.160Z,98657.97
2022-08-23T09:22:11.146Z,98660.16
2022-08-23T09:24:37.708Z,98652.56
2022-08-23T09:27:04.472Z,98667.84
2022-08-23T09:29:33.182Z,98662.09
2022-08-23T09:32:06.662Z,98664.97
2022-08-23T09:34:35.990Z,98659.09
2022-08-23T09:37:09.822Z,98661.94
2022-08-23T09:39:39.327Z,98660.22
2022-08-23T09:42:26.963Z,98665.50
2022-08-23T09:44:54.506Z,98654.91
2022-08-23T09:47:30.342Z,98655.06
2022-08-23T09:50:06.994Z,98643.03
2022-08-23T09:52:37.774Z,98642.28
2022-08-23T09:55:35.400Z,98639.75
2022-08-23T09:58:15.921Z,98637.53
2022-08-23T10:00:43.149Z,98642.25
2022-08-23T10:03:27.056Z,98643.13
2022-08-23T10:05:56.493Z,98639.56
2022-08-23T10:08:32.976Z,98630.94
2022-08-23T10:11:12.270Z,98635.56
2022-08-23T10:13:43.037Z,98636.47
2022-08-23T10:16:26.277Z,98639.97
2022-08-23T10:19:18.194Z,98643.63
2022-08-23T10:22:01.255Z,98637.38
2022-08-23T10:25:02.549Z,98630.38
2022-08-23T10:28:19.323Z,98642.66
2022-08-23T10:31:06.306Z,98637.72
2022-08-23T10:34:00.420Z,98633.06
2022-08-23T10:36:33.847Z,98633.16
2022-08-23T10:39:18.895Z,98627.06
2022-08-23T10:42:19.978Z,98628.97
2022-08-23T10:44:53.987Z,98621.91
2022-08-23T10:47:37.294Z,98618.28
2022-08-23T10:50:08.025Z,98621.47
2022-08-23T10:52:45.298Z,98617.38
2022-08-23T10:55:35.198Z,98621.97
2022-08-23T10:58:05.493Z,98619.53
2022-08-23T11:00:34.469Z,98616.66
2022-08-23T11:03:32.353Z,98617.06
2022-08-23T11:06:32.018Z,98610.59
2022-08-23T11:09:28.149Z,98607.31
2022-08-23T11:12:14.151Z,98617.69
2022-08-23T11:14:47.016Z,98615.16
2022-08-23T11:17:35.437Z,98602.47
2022-08-23T11:20:08.728Z,98607.03
2022-08-23T11:22:57.894Z,98610.78
2022-08-23T11:25:24.340Z,98606.38
2022-08-23T11:27:50.946Z,98601.16
2022-08-23T11:30:32.885Z,98604.69
2022-08-23T11:33:21.447Z,98605.25
2022-08-23T11:35:50.187Z,98601.47
2022-08-23T11:38:38.350Z,98606.31
2022-08-23T11:41:19.941Z,98600.50
2022-08-23T11:43:57.001Z,98604.44
2022-08-23T11:46:24.229Z,98599.66
2022-08-23T11:49:12.218Z,98595.94
2022-08-23T11:51:44.807Z,98597.06
2022-08-23T11:54:29.823Z,98601.91
2022-08-23T11:57:28.483Z,98599.38
2022-08-23T12:00:27.718Z,98596.38
2022-08-23T12:03:05.817Z,98596.22
2022-08-23T12:05:38.696Z,98594.22
2022-08-23T12:08:05.903Z,98600.09
2022-08-23T12:10:41.603Z,98594.19
2022-08-23T12:13:19.989Z,98603.09
2022-08-23T12:16:16.528Z,98592.13
2022-08-23T12:18:49.827Z,98596.72
2022-08-23T12:21:22.605Z,98599.09
2022-08-23T12:23:52.764Z,98599.13
2022-08-23T12:26:44.209Z,98591.44
2022-08-23T12:29:33.701Z,98586.25
2022-08-23T12:32:12.100Z,98583.84
2022-08-23T12:34:55.014Z,98592.38
2022-08-23T12:37:39.918Z,98590.63
2022-08-23T12:40:15.696Z,98594.41
2022-08-23T12:42:42.828Z,98586.13
2022-08-23T12:45:17.353Z,98584.50
2022-08-23T12:47:56.671Z,98587.50
2022-08-23T12:50:55.115Z,98597.16
2022-08-23T12:53:32.293Z,98583.44
2022-08-23T12:56:08.850Z,98591.13
2022-08-23T12:58:39.800Z,98579.00
2022-08-23T13:01:17.406Z,98577.56
2022-08-23T13:03:48.626Z,98584.44
2022-08-23T13:06:21.813Z,98578.28
2022-08-23T13:08:57.686Z,98579.00
2022-08-23T13:11:27.568Z,98584.00
2022-08-23T13:13:55.396Z,98577.25
2022-08-23T13:16:36.079Z,98578.59
2022-08-23T13:19:30.874Z,98574.53
2022-08-23T13:22:19.012Z,98569.97
2022-08-23T13:25:28.757Z,98575.16
2022-08-23T13:28:00.797Z,98572.97
2022-08-23T13:30:33.252Z,98567.03
2022-08-23T13:33:07.832Z,98565.78
2022-08-23T13:35:36.631Z,98563.88
2022-08-23T13:38:21.324Z,98566.81
2022-08-23T13:40:59.457Z,98571.84
2022-08-23T13:43:27.858Z,98561.56
2022-08-23T13:45:57.474Z,98563.44
2022-08-23T13:48:34.646Z,98556.63
2022-08-23T13:51:30.710Z,98558.56
2022-08-23T13:53:59.675Z,98562.28
2022-08-23T13:56:28.456Z,98558.13
2022-08-23T13:59:18.065Z,98553.06
2022-08-23T14:01:45.431Z,98554.69
2022-08-23T14:04:12.036Z,98557.81
2022-08-23T14:06:38.713Z,98552.38
2022-08-23T14:09:06.749Z,98553.50
2022-08-23T14:11:34.909Z,98544.00
2022-08-23T14:14:01.988Z,98558.34
2022-08-23T14:16:34.791Z,98549.81
2022-08-23T14:20:31.495Z,98554.72
2022-08-23T14:21:51.068Z,98559.97
2022-08-23T14:24:20.154Z,98552.44
2022-08-23T14:26:50.217Z,98549.47
2022-08-23T14:29:21.569Z,98544.47
2022-08-23T14:31:50.430Z,98558.25
2022-08-23T14:34:17.086Z,98546.91
2022-08-23T14:37:21.637Z,98547.75
2022-08-23T14:39:30.813Z,98543.06
2022-08-23T14:41:57.844Z,98547.16
2022-08-23T14:44:25.670Z,98551.16
2022-08-23T14:46:54.624Z,98547.00
2022-08-23T14:49:22.063Z,98554.56
2022-08-23T14:51:50.779Z,98541.63
2022-08-23T14:54:21.572Z,98541.03
2022-08-23T14:56:48.730Z,98541.03
2022-08-23T14:59:15.841Z,98546.56
2022-08-23T15:01:42.922Z,98542.16
2022-08-23T15:04:10.077Z,98549.06
2022-08-23T15:06:36.991Z,98551.59
2022-08-23T15:09:04.305Z,98556.13
2022-08-23T15:14:17.808Z,98543.72
2022-08-23T15:16:44.615Z,98553.41
2022-08-23T15:19:11.223Z,98548.25
2022-08-23T15:21:37.777Z,98551.28
2022-08-23T15:24:04.766Z,98561.31
2022-08-23T15:26:32.108Z,98549.25
2022-08-23T15:29:00.276Z,98547.56
2022-08-23T15:31:27.848Z,98543.63
2022-08-23T15:33:54.502Z,98543.03
2022-08-23T15:36:21.147Z,98544.44
2022-08-23T15:38:49.136Z,98545.56
2022-08-23T15:41:19.811Z,98543.34
2022-08-23T15:43:46.992Z,98541.00
2022-08-23T15:46:21.754Z,98543.00
2022-08-23T15:48:54.696Z,98542.28
2022-08-23T15:51:21.727Z,98545.50
2022-08-23T15:53:48.514Z,98541.22
2022-08-23T15:56:21.035Z,98541.69
2022-08-23T15:58:48.499Z,98538.38
2022-08-23T16:01:15.197Z,98534.88
2022-08-23T16:03:43.474Z,98538.34
2022-08-23T16:06:12.821Z,98549.28
2022-08-23T16:08:42.537Z,98544.38
2022-08-23T16:11:12.883Z,98549.06
2022-08-23T16:13:45.143Z,98543.81
2022-08-23T16:16:23.336Z,98549.97
2022-08-23T16:18:51.792Z,98538.88
2022-08-23T16:21:18.402Z,98542.56
2022-08-23T16:23:45.278Z,98544.50
2022-08-23T16:26:22.353Z,98545.69
2022-08-23T16:28:57.068Z,98549.66
2022-08-23T16:31:39.005Z,98542.81
2022-08-23T16:34:09.400Z,98542.16
2022-08-23T16:36:36.325Z,98550.97
2022-08-23T16:39:03.896Z,98541.41
2022-08-23T16:41:30.415Z,98549.97
2022-08-23T16:43:56.994Z,98549.50
2022-08-23T16:46:24.665Z,98552.56
2022-08-23T16:48:51.444Z,98548.59
2022-08-23T16:51:18.318Z,98547.53
2022-08-23T16:53:44.934Z,98548.63
2022-08-23T16:56:29.857Z,98553.22
2022-08-23T16:58:56.991Z,98557.94
2022-08-23T17:01:23.784Z,98563.34
2022-08-23T17:03:50.753Z,98556.84
2022-08-23T17:06:18.353Z,98558.44
2022-08-23T17:08:45.291Z,98561.72
2022-08-23T17:11:15.765Z,98565.09
2022-08-23T17:13:42.455Z,98560.91
2022-08-23T17:16:10.843Z,98570.97
2022-08-23T17:18:38.570Z,98574.63
2022-08-23T17:21:05.911Z,98572.94
2022-08-23T17:23:33.174Z,98584.91
2022-08-23T17:26:06.107Z,98585.00
2022-08-23T17:28:32.961Z,98584.66
2022-08-23T17:30:59.597Z,98589.53
2022-08-23T17:33:26.297Z,98588.09
2022-08-23T17:35:53.111Z,98580.03
2022-08-23T17:38:20.972Z,98578.44
2022-08-23T17:40:48.245Z,98592.72
2022-08-23T17:43:14.874Z,98593.34
2022-08-23T17:45:45.609Z,98587.38
2022-08-23T17:48:13.918Z,98585.03
2022-08-23T17:50:43.587Z,98594.69
2022-08-23T17:53:11.523Z,98607.66
2022-08-23T17:55:39.462Z,98604.94
2022-08-23T17:58:10.000Z,98614.78
2022-08-23T18:00:39.061Z,98611.59
2022-08-23T18:03:05.939Z,98615.63
2022-08-23T18:05:33.946Z,98618.41
2022-08-23T18:08:00.811Z,98622.41
2022-08-23T18:10:27.557Z,98618.03
2022-08-23T18:12:54.141Z,98624.34
2022-08-23T18:15:20.739Z,98627.75
2022-08-23T18:17:47.373Z,98636.38
2022-08-23T18:20:14.159Z,98632.34
2022-08-23T18:22:40.920Z,98636.78
2022-08-23T18:25:10.074Z,98636.88
2022-08-23T18:27:55.632Z,98631.78
2022-08-23T18:30:22.228Z,98634.13
2022-08-23T18:32:48.813Z,98644.56
2022-08-23T18:35:15.614Z,98648.13
2022-08-23T18:37:42.430Z,98651.03
2022-08-23T18:40:10.481Z,98643.81
2022-08-23T18:42:37.911Z,98653.28
2022-08-23T18:45:06.082Z,98658.63
2022-08-23T18:47:32.994Z,98663.22
2022-08-23T18:49:59.571Z,98661.41
2022-08-23T18:52:27.637Z,98667.09
2022-08-23T18:54:57.731Z,98669.00
2022-08-23T18:57:24.486Z,98670.41
2022-08-23T18:59:51.512Z,98671.56
2022-08-23T19:02:18.408Z,98681.72
2022-08-23T19:04:46.265Z,98671.22
2022-08-23T19:07:12.998Z,98672.81
2022-08-23T19:09:39.595Z,98673.72
2022-08-23T19:12:06.553Z,98680.13
2022-08-23T19:14:35.712Z,98684.03
2022-08-23T19:17:08.239Z,98686.91
2022-08-23T19:19:35.898Z,98691.16
2022-08-23T19:22:03.806Z,98692.41
2022-08-23T19:24:30.801Z,98694.78
2022-08-23T19:26:57.449Z,98693.81
2022-08-23T19:29:24.128Z,98698.81
2022-08-23T19:31:50.750Z,98698.41
2022-08-23T19:34:19.728Z,98704.63
2022-08-23T19:36:56.821Z,98705.03
2022-08-23T19:39:27.833Z,98714.97
2022-08-23T19:41:54.511Z,98703.41
2022-08-23T19:44:21.420Z,98707.22
2022-08-23T19:46:48.470Z,98706.69
2022-08-23T19:49:15.744Z,98708.41
2022-08-23T19:51:43.814Z,98706.22
2022-08-23T19:54:12.898Z,98709.94
2022-08-23T19:56:47.073Z,98711.25
2022-08-23T19:59:19.611Z,98709.72
2022-08-23T20:01:47.991Z,98709.16
2022-08-23T20:04:16.286Z,98705.34
2022-08-23T20:06:43.355Z,98708.97
2022-08-23T20:09:10.126Z,98711.84
2022-08-23T20:11:37.293Z,98716.25
2022-08-23T20:14:05.435Z,98720.31
2022-08-23T20:16:32.965Z,98723.19
2022-08-23T20:19:00.288Z,98735.22
2022-08-23T20:21:27.719Z,98730.25
2022-08-23T20:24:04.424Z,98724.44
2022-08-23T20:26:34.007Z,98728.25
2022-08-23T20:29:05.567Z,98728.53
2022-08-23T20:31:36.713Z,98727.50
2022-08-23T20:34:05.895Z,98730.16
2022-08-23T20:36:33.503Z,98724.63
2022-08-23T20:39:01.566Z,98719.09
2022-08-23T20:41:31.260Z,98721.97
2022-08-23T20:43:58.931Z,98717.47
2022-08-23T20:46:26.708Z,98730.91
2022-08-23T20:48:54.044Z,98729.88
2022-08-23T20:51:21.297Z,98724.22
2022-08-23T20:53:48.064Z,98735.94
2022-08-23T20:56:15.226Z,98729.38
2022-08-23T20:58:42.414Z,98732.13
2022-08-23T21:01:11.100Z,98726.75
2022-08-23T21:03:39.006Z,98723.13
2022-08-23T21:06:09.292Z,98721.66
2022-08-23T21:08:42.528Z,98719.75
2022-08-23T21:11:10.642Z,98726.97
2022-08-23T21:13:41.406Z,98728.03
2022-08-23T21:16:08.243Z,98726.97
2022-08-23T21:18:34.965Z,98722.41
2022-08-23T21:21:01.587Z,98722.09
2022-08-23T21:23:28.189Z,98722.28
2022-08-23T21:25:56.527Z,98724.78
2022-08-23T21:28:24.314Z,98721.66
2022-08-23T21:30:51.034Z,98718.91
2022-08-23T21:33:18.225Z,98728.19
2022-08-23T21:35:44.942Z,98725.34
2022-08-23T21:38:11.664Z,98721.97
2022-08-23T21:40:38.516Z,98722.50
2022-08-23T21:43:05.374Z,98723.88
2022-08-23T21:45:32.084Z,98728.63
2022-08-23T21:47:58.820Z,98720.09
2022-08-23T21:50:28.681Z,98724.19
2022-08-23T21:53:03.833Z,98720.00
2022-08-23T21:55:36.187Z,98720.41
2022-08-23T21:58:04.119Z,98727.00
2022-08-23T22:00:30.864Z,98722.28
2022-08-23T22:02:57.592Z,98734.88
2022-08-23T22:05:24.504Z,98726.44
2022-08-23T22:07:52.020Z,98721.00
2022-08-23T22:10:18.965Z,98725.03
2022-08-23T22:12:45.530Z,98727.06
2022-08-23T22:15:14.806Z,98728.97
2022-08-23T22:17:41.366Z,98724.63
2022-08-23T22:20:09.677Z,98717.19
2022-08-23T22:22:37.278Z,98728.47
2022-08-23T22:25:04.593Z,98727.09
2022-08-23T22:27:32.864Z,98727.97
2022-08-23T22:29:59.603Z,98728.31
2022-08-23T22:32:26.780Z,98724.53
2022-08-23T22:34:53.550Z,98729.69
2022-08-23T22:37:20.248Z,98730.91
2022-08-23T22:39:46.991Z,98730.03
2022-08-23T22:42:13.947Z,98724.03
2022-08-23T22:44:40.794Z,98726.06
2022-08-23T22:47:07.640Z,98722.47
2022-08-23T22:49:34.564Z,98720.47
2022-08-23T22:52:01.152Z,98720.22
2022-08-23T22:54:27.831Z,98724.22
2022-08-23T22:56:54.730Z,98725.03
2022-08-23T22:59:25.858Z,98722.78
2022-08-23T23:01:58.205Z,98729.09
2022-08-23T23:04:26.737Z,98726.84
2022-08-23T23:06:54.754Z,98737.84
2022-08-23T23:09:21.508Z,98732.78
2022-08-23T23:11:48.775Z,98739.28
2022-08-23T23:14:17.484Z,98735.84
2022-08-23T23:16:44.981Z,98745.94
2022-08-23T23:19:30.607Z,98738.06
2022-08-23T23:21:58.453Z,98739.78
2022-08-23T23:24:31.250Z,98736.63
2022-08-23T23:26:59.228Z,98732.91
2022-08-23T23:29:27.518Z,98731.97
2022-08-23T23:31:55.649Z,98737.13
2022-08-23T23:34:23.534Z,98728.50
2022-08-23T23:36:50.128Z,98731.31
2022-08-23T23:39:16.936Z,98737.75
2022-08-23T23:41:43.636Z,98729.28
2022-08-23T23:44:10.192Z,98731.16
2022-08-23T23:46:36.959Z,98730.84
2022-08-23T23:49:04.256Z,98734.06
2022-08-23T23:51:31.609Z,98731.31
2022-08-23T23:54:00.976Z,98723.97
2022-08-23T23:56:29.376Z,98725.53
2022-08-23T23:58:56.859Z,98726.09
